Time;durP1;ratioP1;P1;durP2;ratioP2;P2;SDS_P1;SDS_P2;PMS_P1;PMS_P2;Temp;Humidity;BMP_temperature;BMP_pressure;BME280_temperature;BME280_humidity;BME280_pressure;Samples;Min_cycle;Max_cycle;Signal;HPM_P1;HPM_P2
2022/07/21 00:00:23;;;;;;;4.10;1.83;;;24.90;44.20;;;;;;4983511;28;20113;-47
2022/07/21 00:02:50;;;;;;;4.53;1.98;;;24.90;44.70;;;;;;4983745;28;20071;-47
2022/07/21 00:05:16;;;;;;;5.00;1.92;;;24.90;44.60;;;;;;5000228;28;20091;-46
2022/07/21 00:07:43;;;;;;;3.53;2.00;;;24.80;44.50;;;;;;5003311;28;20026;-47
2022/07/21 00:10:10;;;;;;;3.75;1.90;;;24.80;44.40;;;;;;5002368;28;20658;-47
2022/07/21 00:12:36;;;;;;;4.18;1.60;;;24.80;44.40;;;;;;5003096;28;20517;-47
2022/07/21 00:15:03;;;;;;;3.80;2.00;;;24.80;44.40;;;;;;5003287;28;20022;-47
2022/07/21 00:17:29;;;;;;;4.25;2.08;;;24.70;44.60;;;;;;5002973;28;20026;-47
2022/07/21 00:19:54;;;;;;;4.13;2.08;;;24.70;44.60;;;;;;5002778;28;20037;-47
2022/07/21 00:22:20;;;;;;;4.70;1.90;;;24.70;44.70;;;;;;5002412;28;20038;-46
2022/07/21 00:24:46;;;;;;;3.42;1.83;;;24.70;44.60;;;;;;5003151;28;20029;-47
2022/07/21 00:27:12;;;;;;;3.67;1.90;;;24.70;44.50;;;;;;5003161;28;20040;-47
2022/07/21 00:29:37;;;;;;;5.45;2.20;;;24.70;44.80;;;;;;5007676;28;20057;-47
2022/07/21 00:32:05;;;;;;;3.70;2.08;;;24.60;44.60;;;;;;5001524;28;20050;-49
2022/07/21 00:34:31;;;;;;;2.92;1.50;;;24.60;44.60;;;;;;5004644;28;20034;-49
2022/07/21 00:36:57;;;;;;;3.03;1.60;;;24.60;44.60;;;;;;5006922;28;20040;-47
2022/07/21 00:39:23;;;;;;;4.22;1.77;;;24.50;44.50;;;;;;5007073;28;20040;-48
2022/07/21 00:41:49;;;;;;;2.38;1.45;;;24.50;44.80;;;;;;5000221;28;20099;-48
2022/07/21 00:44:26;;;;;;;3.58;1.60;;;24.50;44.60;;;;;;4987276;28;20053;-48
2022/07/21 00:46:52;;;;;;;4.30;1.73;;;24.50;44.70;;;;;;5005996;28;20029;-48
2022/07/21 00:49:18;;;;;;;3.70;1.77;;;24.40;44.90;;;;;;5005035;28;20034;-50
2022/07/21 00:51:43;;;;;;;3.10;1.45;;;24.40;44.80;;;;;;5005296;28;20041;-48
2022/07/21 00:54:09;;;;;;;3.45;1.83;;;24.40;45.00;;;;;;5006358;28;20018;-49
2022/07/21 00:56:36;;;;;;;4.15;1.80;;;24.40;45.20;;;;;;5006363;28;20097;-48
2022/07/21 00:59:01;;;;;;;3.00;1.60;;;24.40;45.20;;;;;;5006308;28;20661;-48
2022/07/21 01:01:27;;;;;;;3.45;1.60;;;24.40;45.30;;;;;;5006622;28;20116;-49
2022/07/21 01:03:53;;;;;;;3.70;1.58;;;24.30;45.30;;;;;;5005840;28;20067;-51
2022/07/21 01:06:18;;;;;;;3.72;1.63;;;24.30;45.30;;;;;;5037562;28;20030;-48
2022/07/21 01:08:44;;;;;;;3.88;1.75;;;24.30;45.30;;;;;;5006302;28;20132;-48
2022/07/21 01:11:10;;;;;;;4.03;1.92;;;24.30;45.40;;;;;;5005719;28;20030;-48
2022/07/21 01:13:41;;;;;;;5.30;2.10;;;24.30;45.40;;;;;;5004683;28;20030;-48
2022/07/21 01:16:10;;;;;;;2.90;1.58;;;24.30;45.20;;;;;;5018777;28;20029;-48
2022/07/21 01:18:36;;;;;;;2.58;1.48;;;24.20;45.40;;;;;;5023622;28;20026;-49
2022/07/21 01:21:08;;;;;;;4.15;1.92;;;24.20;45.40;;;;;;5006583;28;20558;-48
2022/07/21 01:23:34;;;;;;;3.47;1.87;;;24.20;45.20;;;;;;5020585;28;20069;-47
2022/07/21 01:25:59;;;;;;;3.22;1.90;;;24.20;45.20;;;;;;5003875;28;20301;-48
2022/07/21 01:28:25;;;;;;;4.00;2.00;;;24.10;45.30;;;;;;5005136;28;20033;-49
2022/07/21 01:30:50;;;;;;;4.40;1.90;;;24.10;45.10;;;;;;5004547;28;20022;-48
2022/07/21 01:33:16;;;;;;;2.92;1.60;;;24.10;45.10;;;;;;5005655;28;20034;-50
2022/07/21 01:35:42;;;;;;;3.50;1.50;;;24.10;45.20;;;;;;5003075;28;20022;-48
2022/07/21 01:41:28;;;;;;;3.97;1.77;;;24.10;45.20;;;;;;5005039;28;20036;-48
2022/07/21 01:44:08;;;;;;;3.95;1.58;;;24.00;45.00;;;;;;4906238;29;20115;-48
2022/07/21 01:46:37;;;;;;;3.75;1.73;;;24.00;45.00;;;;;;4982699;28;20049;-47
2022/07/21 01:49:03;;;;;;;3.95;1.83;;;24.00;45.10;;;;;;5001618;28;20037;-47
2022/07/21 01:51:29;;;;;;;2.75;1.58;;;24.00;45.20;;;;;;5004964;28;20045;-48
2022/07/21 01:53:55;;;;;;;4.43;1.92;;;24.00;45.10;;;;;;5004379;28;20023;-48
2022/07/21 01:56:23;;;;;;;4.55;2.08;;;24.00;45.40;;;;;;5004723;28;20068;-49
2022/07/21 01:58:51;;;;;;;4.30;1.77;;;23.90;45.50;;;;;;5004456;28;20021;-48
2022/07/21 02:01:17;;;;;;;4.75;2.08;;;23.90;45.50;;;;;;5004218;28;20060;-49
2022/07/21 02:03:45;;;;;;;3.28;1.55;;;23.90;45.20;;;;;;4999802;28;20099;-49
2022/07/21 02:06:11;;;;;;;4.57;1.92;;;23.90;45.40;;;;;;5003254;28;20116;-47
2022/07/21 02:08:37;;;;;;;3.88;1.90;;;23.80;45.50;;;;;;5004305;28;20106;-48
2022/07/21 02:11:03;;;;;;;3.78;2.33;;;23.80;45.50;;;;;;5003970;28;20036;-48
2022/07/21 02:13:29;;;;;;;3.53;1.52;;;23.80;45.70;;;;;;5004945;28;20056;-47
2022/07/21 02:15:55;;;;;;;4.57;2.22;;;23.80;45.60;;;;;;5004284;28;20095;-47
2022/07/21 02:18:20;;;;;;;4.47;1.85;;;23.80;45.50;;;;;;5004255;28;20022;-50
2022/07/21 02:20:50;;;;;;;3.58;1.80;;;23.70;45.50;;;;;;5001856;28;20115;-50
2022/07/21 02:23:16;;;;;;;4.43;1.83;;;23.70;45.80;;;;;;5003670;28;20315;-48
2022/07/21 02:25:42;;;;;;;3.72;1.77;;;23.70;45.80;;;;;;5004369;28;20053;-48
2022/07/21 02:28:08;;;;;;;3.92;2.00;;;23.70;45.90;;;;;;5001927;28;20457;-47
2022/07/21 02:30:34;;;;;;;4.22;1.92;;;23.70;45.80;;;;;;5003544;28;20037;-49
2022/07/21 02:32:59;;;;;;;2.80;1.73;;;23.60;45.80;;;;;;5003624;28;20052;-48
2022/07/21 02:35:25;;;;;;;3.28;1.67;;;23.60;45.80;;;;;;5001212;28;20026;-48
2022/07/21 02:37:51;;;;;;;4.38;2.17;;;23.60;46.10;;;;;;5003679;28;20076;-48
2022/07/21 02:40:16;;;;;;;3.63;1.95;;;23.60;46.00;;;;;;5003952;28;20095;-48
2022/07/21 02:42:42;;;;;;;3.65;2.00;;;23.60;46.10;;;;;;5004033;28;20038;-48
2022/07/21 02:45:10;;;;;;;5.93;2.15;;;23.60;46.30;;;;;;5003648;28;20785;-50
2022/07/21 02:47:56;;;;;;;4.20;1.80;;;23.60;46.40;;;;;;5002216;28;20083;-46
2022/07/21 02:50:25;;;;;;;4.30;1.77;;;23.60;46.30;;;;;;5002083;28;20422;-47
2022/07/21 02:52:55;;;;;;;3.58;1.95;;;23.50;46.40;;;;;;5004897;28;20669;-49
2022/07/21 02:55:21;;;;;;;3.60;1.65;;;23.50;46.90;;;;;;5001550;28;20101;-47
2022/07/21 02:57:46;;;;;;;3.88;1.85;;;23.50;46.60;;;;;;5003286;28;20110;-47
2022/07/21 03:00:12;;;;;;;4.50;2.03;;;23.50;46.60;;;;;;5003109;28;20030;-47
2022/07/21 03:02:38;;;;;;;5.00;2.28;;;23.40;46.60;;;;;;5004015;28;20034;-47
2022/07/21 03:05:04;;;;;;;3.08;2.00;;;23.50;46.60;;;;;;4999546;28;20026;-47
2022/07/21 03:07:30;;;;;;;4.25;2.30;;;23.50;46.80;;;;;;5003418;28;20080;-47
2022/07/21 03:09:55;;;;;;;5.30;2.40;;;23.50;47.00;;;;;;5003563;28;20037;-47
2022/07/21 03:12:21;;;;;;;3.05;1.80;;;23.40;47.10;;;;;;5003211;28;20096;-46
2022/07/21 03:14:47;;;;;;;3.55;2.03;;;23.40;47.10;;;;;;5003422;28;20021;-47
2022/07/21 03:17:13;;;;;;;3.30;2.08;;;23.40;47.00;;;;;;5002598;28;20022;-46
2022/07/21 03:19:38;;;;;;;4.30;2.00;;;23.30;47.10;;;;;;5001845;28;20061;-48
2022/07/21 03:22:04;;;;;;;4.40;2.15;;;23.40;47.20;;;;;;5004738;28;20586;-48
2022/07/21 03:24:30;;;;;;;4.10;2.22;;;23.30;47.10;;;;;;5003046;28;20058;-47
2022/07/21 03:26:57;;;;;;;3.90;2.17;;;23.30;47.10;;;;;;5002705;28;20273;-47
2022/07/21 03:29:23;;;;;;;3.90;2.45;;;23.30;47.30;;;;;;5002748;28;20037;-46
2022/07/21 03:31:48;;;;;;;3.60;1.90;;;23.30;47.10;;;;;;5003361;28;20030;-46
2022/07/21 03:34:14;;;;;;;5.53;2.35;;;23.30;47.00;;;;;;5001407;28;20099;-46
2022/07/21 03:36:40;;;;;;;4.22;2.25;;;23.30;46.90;;;;;;5000873;28;20048;-47
2022/07/21 03:39:06;;;;;;;5.80;2.35;;;23.30;46.90;;;;;;5002893;28;20037;-46
2022/07/21 03:41:31;;;;;;;4.50;2.22;;;23.30;47.00;;;;;;5002575;28;20034;-46
2022/07/21 03:43:57;;;;;;;4.40;2.60;;;23.30;47.10;;;;;;5003350;28;20018;-47
2022/07/21 03:46:23;;;;;;;4.63;2.47;;;23.30;47.10;;;;;;5017929;28;20017;-47
2022/07/21 03:48:49;;;;;;;3.90;2.05;;;23.30;47.10;;;;;;5002367;28;20115;-46
2022/07/21 03:51:14;;;;;;;5.68;2.78;;;23.20;47.20;;;;;;5003551;28;20030;-47
2022/07/21 03:53:40;;;;;;;5.72;2.95;;;23.20;47.40;;;;;;5002407;28;20057;-46
2022/07/21 03:56:06;;;;;;;5.10;2.80;;;23.20;47.60;;;;;;5002493;28;20021;-48
2022/07/21 03:58:31;;;;;;;5.53;2.55;;;23.20;47.70;;;;;;5001664;28;20018;-47
2022/07/21 04:00:57;;;;;;;5.20;2.55;;;23.10;48.00;;;;;;5002276;28;20026;-46
2022/07/21 04:03:23;;;;;;;3.80;2.10;;;23.00;48.10;;;;;;5002763;28;20026;-47
2022/07/21 04:05:49;;;;;;;4.47;2.13;;;23.00;48.50;;;;;;5001125;28;20066;-46
2022/07/21 04:08:15;;;;;;;4.80;2.67;;;23.00;48.40;;;;;;5001888;28;20038;-47
2022/07/21 04:10:42;;;;;;;3.33;2.00;;;22.90;48.50;;;;;;5003174;28;20065;-47
2022/07/21 04:13:11;;;;;;;4.38;2.65;;;23.00;48.40;;;;;;5002641;28;20029;-46
2022/07/21 04:15:37;;;;;;;5.65;2.53;;;23.00;48.80;;;;;;5002683;28;20019;-47
2022/07/21 04:18:04;;;;;;;4.90;2.40;;;23.00;48.90;;;;;;5003021;28;20049;-46
2022/07/21 04:20:30;;;;;;;6.65;2.53;;;23.10;49.20;;;;;;5002906;28;20038;-46
2022/07/21 04:22:56;;;;;;;4.32;2.55;;;23.10;48.80;;;;;;5022314;28;20045;-47
2022/07/21 04:25:22;;;;;;;5.47;2.13;;;23.10;48.50;;;;;;5022403;28;20025;-47
2022/07/21 04:27:50;;;;;;;4.60;2.55;;;23.10;48.70;;;;;;5022923;28;20040;-46
2022/07/21 04:30:18;;;;;;;4.47;2.33;;;23.10;48.90;;;;;;5022174;28;20021;-47
2022/07/21 04:32:44;;;;;;;4.70;2.47;;;23.10;49.00;;;;;;5022249;28;20375;-47
2022/07/21 04:35:10;;;;;;;5.40;2.45;;;23.10;48.80;;;;;;5009784;28;20032;-46
2022/07/21 04:37:36;;;;;;;4.60;2.10;;;23.00;48.70;;;;;;5001868;28;20367;-47
2022/07/21 04:40:04;;;;;;;4.72;2.38;;;23.10;48.90;;;;;;4999668;28;20037;-47
2022/07/21 04:42:30;;;;;;;5.45;2.40;;;23.00;49.10;;;;;;4997266;28;20033;-47
2022/07/21 04:44:56;;;;;;;6.50;3.00;;;23.00;48.90;;;;;;5002553;28;20578;-47
2022/07/21 04:47:22;;;;;;;4.68;2.22;;;23.10;49.40;;;;;;5001440;28;20087;-47
2022/07/21 04:49:47;;;;;;;4.40;2.25;;;23.10;48.80;;;;;;5002185;28;20061;-47
2022/07/21 04:52:13;;;;;;;4.15;1.90;;;23.10;48.90;;;;;;5015860;28;20034;-49
2022/07/21 04:54:39;;;;;;;3.75;1.73;;;23.10;49.40;;;;;;5021994;28;20030;-46
2022/07/21 04:57:05;;;;;;;4.45;2.00;;;23.20;49.00;;;;;;5001684;28;20022;-47
2022/07/21 04:59:32;;;;;;;3.88;2.03;;;23.10;49.20;;;;;;5001647;28;20033;-47
2022/07/21 05:01:58;;;;;;;5.85;2.47;;;23.10;49.30;;;;;;5000475;28;20602;-47
2022/07/21 05:04:25;;;;;;;4.43;1.98;;;23.10;49.20;;;;;;5000358;28;20041;-47
2022/07/21 05:06:50;;;;;;;2.80;1.70;;;23.20;49.20;;;;;;5001178;28;20385;-47
2022/07/21 05:09:16;;;;;;;6.72;2.45;;;23.20;49.40;;;;;;5001595;28;20097;-47
2022/07/21 05:11:42;;;;;;;4.53;2.08;;;23.20;50.10;;;;;;5001690;28;20040;-46
2022/07/21 05:14:07;;;;;;;5.50;2.45;;;23.10;49.70;;;;;;5001971;28;20018;-47
2022/07/21 05:16:33;;;;;;;4.88;2.40;;;23.10;50.00;;;;;;5000790;28;20022;-47
2022/07/21 05:18:58;;;;;;;4.45;2.42;;;23.00;50.30;;;;;;5000744;28;20026;-47
2022/07/21 05:21:24;;;;;;;4.78;2.45;;;23.00;51.00;;;;;;5011053;28;20028;-47
2022/07/21 05:23:50;;;;;;;4.13;2.03;;;23.00;50.90;;;;;;5024700;28;20072;-45
2022/07/21 05:26:15;;;;;;;4.07;2.42;;;23.00;50.80;;;;;;5019894;28;20034;-47
2022/07/21 05:28:41;;;;;;;5.40;1.88;;;23.10;50.70;;;;;;5005224;28;20058;-47
2022/07/21 05:31:08;;;;;;;3.63;2.00;;;23.20;50.50;;;;;;5005748;28;20026;-46
2022/07/21 05:33:34;;;;;;;3.97;2.08;;;23.30;50.50;;;;;;5005504;28;20030;-47
2022/07/21 05:36:00;;;;;;;4.93;2.03;;;23.30;50.30;;;;;;5003871;28;20064;-46
2022/07/21 05:38:25;;;;;;;4.35;2.30;;;23.40;50.20;;;;;;5005093;28;20054;-46
2022/07/21 05:40:51;;;;;;;3.67;1.85;;;23.50;50.30;;;;;;5004340;28;20044;-46
2022/07/21 05:43:17;;;;;;;3.65;1.83;;;23.50;50.30;;;;;;4986421;28;20039;-47
2022/07/21 05:45:43;;;;;;;4.20;1.75;;;23.60;50.20;;;;;;4985071;28;20109;-47
2022/07/21 05:48:08;;;;;;;4.43;2.35;;;23.70;50.20;;;;;;4984524;28;20057;-47
2022/07/21 05:50:34;;;;;;;4.32;2.10;;;23.60;50.10;;;;;;4998890;28;20042;-47
2022/07/21 05:53:00;;;;;;;3.95;1.83;;;23.70;50.20;;;;;;5024045;28;20700;-47
2022/07/21 05:55:25;;;;;;;4.20;2.10;;;23.80;50.10;;;;;;4998867;28;20037;-47
2022/07/21 05:57:51;;;;;;;4.95;2.60;;;23.80;50.10;;;;;;4997475;28;20087;-47
2022/07/21 06:00:17;;;;;;;3.35;1.92;;;23.80;50.80;;;;;;4999836;28;20072;-46
2022/07/21 06:02:44;;;;;;;3.90;2.20;;;23.90;50.20;;;;;;4999654;28;20541;-47
2022/07/21 06:05:10;;;;;;;4.03;1.90;;;23.90;50.10;;;;;;5011336;28;20568;-46
2022/07/21 06:07:37;;;;;;;5.35;2.05;;;24.00;50.10;;;;;;4999019;28;20076;-47
2022/07/21 06:10:04;;;;;;;3.97;2.13;;;24.00;50.90;;;;;;4999129;28;20033;-47
2022/07/21 06:12:29;;;;;;;4.35;2.00;;;24.10;50.20;;;;;;4998984;28;20026;-46
2022/07/21 06:14:55;;;;;;;4.43;2.20;;;24.10;50.30;;;;;;5003058;28;20026;-46
2022/07/21 06:17:21;;;;;;;4.28;2.08;;;24.10;50.50;;;;;;5002401;28;20030;-47
2022/07/21 06:19:47;;;;;;;3.30;1.73;;;24.20;50.20;;;;;;5002042;28;20033;-47
2022/07/21 06:22:13;;;;;;;4.95;2.40;;;24.20;50.30;;;;;;4999447;28;20065;-46
2022/07/21 06:24:39;;;;;;;4.47;2.50;;;24.20;51.20;;;;;;4987062;28;20029;-46
2022/07/21 06:27:05;;;;;;;11.07;3.60;;;24.30;52.20;;;;;;4998202;28;20045;-46
2022/07/21 06:29:30;;;;;;;5.35;3.53;;;24.30;52.30;;;;;;5000671;28;20021;-46
2022/07/21 06:31:56;;;;;;;6.80;3.55;;;24.40;52.30;;;;;;5001037;28;20022;-47
2022/07/21 06:34:22;;;;;;;7.60;4.20;;;24.40;52.30;;;;;;5003445;28;20021;-47
2022/07/21 06:36:47;;;;;;;8.52;5.25;;;24.40;52.10;;;;;;5003767;28;20028;-47
2022/07/21 06:39:13;;;;;;;8.30;5.25;;;24.50;52.70;;;;;;5004016;28;20121;-47
2022/07/21 06:41:40;;;;;;;6.00;4.93;;;24.50;52.40;;;;;;5004596;28;20626;-47
2022/07/21 06:44:06;;;;;;;7.97;5.15;;;24.50;52.30;;;;;;5004649;28;20061;-47
2022/07/21 06:46:34;;;;;;;6.22;4.97;;;24.60;52.60;;;;;;5010073;28;20053;-48
2022/07/21 06:49:00;;;;;;;8.23;5.03;;;24.60;52.30;;;;;;5023770;28;20763;-47
2022/07/21 06:51:26;;;;;;;8.48;6.05;;;24.70;52.50;;;;;;5000377;28;20110;-47
2022/07/21 06:53:52;;;;;;;7.88;5.80;;;24.70;52.60;;;;;;4999383;28;20449;-47
2022/07/21 06:56:18;;;;;;;5.90;4.65;;;24.80;52.40;;;;;;5002196;28;20026;-47
2022/07/21 06:58:44;;;;;;;7.65;5.80;;;24.80;52.40;;;;;;5010267;28;20545;-47
2022/07/21 07:01:10;;;;;;;7.88;5.35;;;24.80;52.20;;;;;;5002745;28;20465;-47
2022/07/21 07:03:37;;;;;;;8.38;5.82;;;24.80;51.90;;;;;;5002551;28;20037;-47
2022/07/21 07:06:04;;;;;;;8.48;5.50;;;24.90;51.90;;;;;;5003272;28;20073;-49
2022/07/21 07:08:29;;;;;;;9.18;5.35;;;24.90;51.90;;;;;;5003465;28;20034;-47
2022/07/21 07:10:55;;;;;;;5.93;4.72;;;24.90;52.00;;;;;;5004144;28;20072;-47
2022/07/21 07:13:21;;;;;;;8.80;6.20;;;24.90;51.90;;;;;;5004008;28;20099;-48
2022/07/21 07:15:47;;;;;;;8.68;6.28;;;25.00;51.90;;;;;;5004019;28;20022;-47
2022/07/21 07:18:13;;;;;;;7.55;5.50;;;25.00;51.80;;;;;;5004104;28;20053;-47
2022/07/21 07:20:38;;;;;;;8.05;5.93;;;25.00;51.70;;;;;;5003217;28;20065;-47
2022/07/21 07:23:04;;;;;;;7.88;6.03;;;25.00;52.00;;;;;;5003583;28;20634;-46
2022/07/21 07:25:30;;;;;;;7.75;5.38;;;25.10;51.90;;;;;;5002900;28;20402;-47
2022/07/21 07:27:56;;;;;;;8.27;6.18;;;25.10;51.60;;;;;;5003768;28;20034;-47
2022/07/21 07:30:23;;;;;;;8.32;5.97;;;25.10;51.60;;;;;;5003347;28;20366;-47
2022/07/21 07:32:50;;;;;;;7.70;5.88;;;25.10;51.30;;;;;;5003152;28;20402;-47
2022/07/21 07:35:16;;;;;;;9.48;6.40;;;25.20;51.50;;;;;;5003175;28;20547;-46
2022/07/21 07:37:45;;;;;;;8.23;5.32;;;25.20;51.40;;;;;;5003337;28;20037;-47
2022/07/21 07:40:14;;;;;;;7.07;5.13;;;25.20;51.40;;;;;;5003271;28;20488;-47
2022/07/21 07:42:40;;;;;;;6.43;5.18;;;25.20;51.10;;;;;;4999199;28;20091;-47
2022/07/21 07:45:07;;;;;;;7.68;5.90;;;25.30;51.00;;;;;;5000626;28;20034;-47
2022/07/21 07:47:34;;;;;;;6.60;5.35;;;25.30;50.90;;;;;;5002859;28;20087;-47
2022/07/21 07:50:00;;;;;;;7.15;5.70;;;25.30;50.90;;;;;;4994933;28;20616;-47
2022/07/21 07:52:26;;;;;;;8.02;5.55;;;25.30;51.10;;;;;;5020052;28;20053;-47
2022/07/21 07:54:51;;;;;;;7.43;5.53;;;25.30;51.30;;;;;;5022187;28;20056;-47
2022/07/21 07:57:17;;;;;;;8.40;5.65;;;25.30;51.40;;;;;;5022795;28;20032;-47
2022/07/21 07:59:43;;;;;;;6.50;5.25;;;25.40;51.20;;;;;;5005930;28;20049;-47
2022/07/21 08:02:09;;;;;;;7.50;5.20;;;25.40;51.20;;;;;;5001992;28;20026;-48
2022/07/21 08:04:35;;;;;;;6.75;5.60;;;25.40;51.10;;;;;;5002937;28;20076;-46
2022/07/21 08:07:02;;;;;;;8.95;5.90;;;25.40;50.70;;;;;;5002203;28;20123;-48
2022/07/21 08:09:28;;;;;;;7.47;5.45;;;25.40;50.70;;;;;;5003008;28;20064;-47
2022/07/21 08:11:53;;;;;;;6.60;5.63;;;25.50;50.70;;;;;;5002439;28;20038;-47
2022/07/21 08:14:19;;;;;;;7.35;5.47;;;25.50;50.80;;;;;;5034161;28;20034;-47
2022/07/21 08:16:45;;;;;;;8.85;5.70;;;25.50;50.70;;;;;;5001711;28;20022;-47
2022/07/21 08:19:12;;;;;;;7.25;5.85;;;25.50;50.70;;;;;;4999147;28;20591;-47
2022/07/21 08:21:38;;;;;;;7.22;5.80;;;25.50;50.70;;;;;;4999221;28;20029;-47
2022/07/21 08:24:04;;;;;;;6.07;4.82;;;25.50;50.90;;;;;;5002787;28;20022;-46
2022/07/21 08:26:29;;;;;;;6.43;4.78;;;25.60;51.40;;;;;;5002532;28;20120;-46
2022/07/21 08:28:57;;;;;;;7.88;6.05;;;25.60;50.40;;;;;;5003156;28;20101;-47
2022/07/21 08:31:23;;;;;;;7.18;5.78;;;25.60;50.70;;;;;;5033063;28;20540;-47
2022/07/21 08:33:50;;;;;;;8.18;5.65;;;25.60;50.60;;;;;;5002211;28;20611;-47
2022/07/21 08:36:16;;;;;;;8.80;5.63;;;25.60;50.80;;;;;;4999913;28;20089;-47
2022/07/21 08:38:42;;;;;;;7.82;6.10;;;25.60;50.60;;;;;;4998495;28;20112;-47
2022/07/21 08:41:08;;;;;;;8.50;5.47;;;25.70;50.40;;;;;;5002019;28;20145;-47
2022/07/21 08:43:35;;;;;;;7.57;5.35;;;25.70;50.00;;;;;;5002016;28;20037;-47
2022/07/21 08:46:00;;;;;;;7.50;5.38;;;25.70;49.70;;;;;;5001600;28;20026;-47
2022/07/21 08:48:29;;;;;;;7.78;5.65;;;25.70;49.80;;;;;;5019508;28;20056;-47
2022/07/21 08:50:56;;;;;;;7.35;5.45;;;25.80;49.60;;;;;;5008003;28;20061;-47
2022/07/21 08:53:22;;;;;;;7.95;5.70;;;25.70;48.90;;;;;;5002057;28;20762;-47
2022/07/21 08:55:48;;;;;;;6.45;5.18;;;25.80;48.00;;;;;;5005337;28;20026;-47
2022/07/21 08:58:14;;;;;;;6.70;5.13;;;25.80;47.70;;;;;;5005207;28;20045;-48
2022/07/21 09:00:46;;;;;;;6.95;5.07;;;25.90;47.80;;;;;;5021064;28;20068;-47
2022/07/21 09:03:23;;;;;;;6.47;4.83;;;25.80;48.20;;;;;;5025564;28;20119;-47
2022/07/21 09:06:08;;;;;;;7.47;5.15;;;25.90;48.10;;;;;;5003489;28;21033;-47
2022/07/21 09:08:37;;;;;;;8.20;4.82;;;25.90;48.40;;;;;;5003005;28;20081;-47
2022/07/21 09:11:11;;;;;;;9.07;4.90;;;25.90;48.70;;;;;;5000478;28;20091;-46
2022/07/21 09:13:38;;;;;;;6.13;5.15;;;25.90;48.60;;;;;;5001754;28;20079;-47
2022/07/21 09:16:04;;;;;;;6.03;4.95;;;26.00;49.50;;;;;;4999902;28;20430;-47
2022/07/21 09:18:29;;;;;;;6.53;5.00;;;26.00;49.40;;;;;;5001257;28;20026;-47
2022/07/21 09:20:57;;;;;;;5.85;4.82;;;26.00;48.90;;;;;;5000284;28;20034;-47
2022/07/21 09:23:24;;;;;;;6.50;5.25;;;26.00;49.20;;;;;;5003327;28;20066;-47
2022/07/21 09:25:52;;;;;;;6.85;5.43;;;26.00;48.90;;;;;;5004949;28;20147;-47
2022/07/21 09:28:26;;;;;;;7.25;5.38;;;26.00;49.30;;;;;;5005804;28;20022;-47
2022/07/21 09:31:06;;;;;;;6.38;4.97;;;26.10;49.20;;;;;;5021793;28;20026;-47
2022/07/21 09:33:44;;;;;;;7.38;5.20;;;26.10;49.00;;;;;;5021365;28;20065;-47
2022/07/21 09:36:12;;;;;;;6.28;5.03;;;26.10;48.90;;;;;;5002638;28;20034;-48
2022/07/21 09:38:44;;;;;;;6.65;4.97;;;26.10;48.90;;;;;;5003901;28;21164;-48
2022/07/21 09:41:21;;;;;;;6.45;5.30;;;26.10;48.70;;;;;;5005190;28;20116;-47
2022/07/21 09:43:49;;;;;;;8.05;5.38;;;26.10;48.90;;;;;;5005064;28;20030;-47
2022/07/21 09:46:20;;;;;;;8.80;5.88;;;26.20;48.40;;;;;;5004683;28;20029;-47
2022/07/21 09:48:51;;;;;;;6.60;5.13;;;26.20;48.50;;;;;;5008730;28;20022;-48
2022/07/21 09:51:26;;;;;;;7.10;5.95;;;26.20;48.00;;;;;;5000639;28;20161;-47
2022/07/21 09:54:00;;;;;;;6.38;5.20;;;26.30;48.30;;;;;;5000652;28;20026;-47
2022/07/21 09:56:28;;;;;;;6.50;5.60;;;26.30;48.90;;;;;;5000962;28;20044;-47
2022/07/21 09:58:55;;;;;;;7.57;6.55;;;26.30;48.60;;;;;;5001981;28;20029;-48
2022/07/21 10:01:22;;;;;;;7.55;5.82;;;26.30;48.50;;;;;;5004076;28;20049;-47
2022/07/21 10:03:49;;;;;;;7.53;5.55;;;26.30;48.20;;;;;;5000627;28;20023;-47
2022/07/21 10:06:17;;;;;;;7.35;6.40;;;26.30;48.00;;;;;;5001913;28;20113;-47
2022/07/21 10:08:44;;;;;;;10.35;5.90;;;26.40;47.90;;;;;;5005210;28;20030;-47
2022/07/21 10:11:10;;;;;;;7.07;6.38;;;26.40;48.10;;;;;;5005314;28;20030;-48
2022/07/21 10:13:37;;;;;;;9.13;6.55;;;26.40;48.20;;;;;;5004937;28;20030;-47
2022/07/21 10:16:04;;;;;;;7.28;6.25;;;26.40;48.30;;;;;;5004987;28;20026;-47
2022/07/21 10:18:46;;;;;;;13.20;7.05;;;26.40;48.30;;;;;;5023508;28;20076;-47
2022/07/21 10:21:41;;;;;;;6.53;5.65;;;26.40;48.40;;;;;;5007364;28;20039;-47
2022/07/21 10:24:11;;;;;;;8.68;6.10;;;26.50;48.10;;;;;;4997664;28;20128;-46
2022/07/21 10:26:38;;;;;;;8.13;6.20;;;26.50;48.10;;;;;;5000913;28;20018;-46
2022/07/21 10:29:03;;;;;;;9.60;6.43;;;26.50;48.60;;;;;;5004840;28;20026;-47
2022/07/21 10:31:29;;;;;;;7.45;6.28;;;26.50;48.50;;;;;;4994662;28;20041;-47
2022/07/21 10:33:58;;;;;;;8.55;6.40;;;26.60;48.00;;;;;;4992242;28;20032;-47
2022/07/21 10:36:36;;;;;;;7.82;6.03;;;26.50;48.00;;;;;;4996663;28;20108;-47
2022/07/21 10:39:08;;;;;;;6.82;5.53;;;26.60;48.10;;;;;;5003327;28;20061;-47
2022/07/21 10:41:45;;;;;;;8.27;6.35;;;26.60;48.50;;;;;;4994361;28;20022;-47
2022/07/21 10:44:30;;;;;;;7.53;6.22;;;26.60;49.20;;;;;;5001508;28;20034;-47
2022/07/21 10:47:11;;;;;;;7.30;5.97;;;26.60;48.40;;;;;;5006245;28;20010;-47
2022/07/21 10:49:49;;;;;;;6.55;5.40;;;26.60;48.30;;;;;;5001273;28;20041;-47
2022/07/21 10:52:56;;;;;;;7.15;5.43;;;26.60;48.50;;;;;;5000129;28;20614;-47
2022/07/21 10:55:25;;;;;;;8.57;5.28;;;26.70;48.20;;;;;;4913834;29;20039;-48
2022/07/21 10:58:16;;;;;;;6.80;6.07;;;26.70;48.20;;;;;;4985331;28;20431;-47
2022/07/21 11:00:56;;;;;;;6.90;5.43;;;26.70;48.50;;;;;;4995108;28;20030;-47
2022/07/21 11:03:22;;;;;;;7.03;5.75;;;26.70;48.30;;;;;;4998944;28;20064;-47
2022/07/21 11:06:06;;;;;;;6.45;5.63;;;26.80;48.60;;;;;;4998066;28;20032;-48
2022/07/21 11:08:47;;;;;;;6.60;5.90;;;26.80;48.30;;;;;;5002911;28;20048;-47
2022/07/21 11:11:18;;;;;;;11.25;6.70;;;26.80;48.00;;;;;;4997677;28;20022;-47
2022/07/21 11:14:05;;;;;;;6.57;5.53;;;26.80;48.30;;;;;;5001295;28;20022;-47
2022/07/21 11:16:55;;;;;;;8.75;5.90;;;26.80;48.10;;;;;;4998540;28;20295;-47
2022/07/21 11:19:40;;;;;;;6.63;5.85;;;26.90;48.30;;;;;;4994828;28;20105;-47
2022/07/21 11:22:14;;;;;;;6.28;5.68;;;26.90;47.90;;;;;;4992831;28;20026;-47
2022/07/21 11:24:57;;;;;;;8.10;5.20;;;26.90;48.00;;;;;;4997767;28;20021;-48
2022/07/21 11:27:25;;;;;;;6.45;5.50;;;26.90;47.50;;;;;;5001711;28;20773;-47
2022/07/21 11:29:54;;;;;;;8.57;6.18;;;26.90;47.60;;;;;;5012325;28;20022;-47
2022/07/21 11:32:21;;;;;;;7.47;5.75;;;26.90;47.70;;;;;;5003206;28;20113;-47
2022/07/21 11:34:57;;;;;;;7.18;5.45;;;26.90;48.10;;;;;;5000927;28;20021;-47
2022/07/21 11:37:44;;;;;;;7.10;5.97;;;26.90;47.90;;;;;;5002789;28;20446;-47
2022/07/21 11:40:15;;;;;;;7.38;6.53;;;27.00;48.30;;;;;;5000452;28;20033;-47
2022/07/21 11:42:46;;;;;;;7.43;6.15;;;27.00;48.60;;;;;;5002998;28;20034;-47
2022/07/21 11:45:13;;;;;;;6.85;5.88;;;27.00;48.70;;;;;;5002528;28;20032;-47
2022/07/21 11:47:40;;;;;;;8.07;5.93;;;27.10;48.90;;;;;;5003898;28;20030;-46
2022/07/21 11:50:08;;;;;;;7.15;5.88;;;27.10;48.70;;;;;;5002914;28;20022;-48
2022/07/21 11:52:36;;;;;;;7.35;5.97;;;27.10;48.80;;;;;;5003218;28;20504;-47
2022/07/21 11:55:04;;;;;;;8.30;6.43;;;27.20;49.10;;;;;;5001740;28;20022;-46
2022/07/21 11:57:30;;;;;;;6.57;5.88;;;27.20;49.00;;;;;;5001652;28;20101;-46
2022/07/21 11:59:57;;;;;;;7.43;6.43;;;27.30;48.80;;;;;;5011581;28;20083;-46
2022/07/21 12:02:28;;;;;;;7.70;6.18;;;27.30;49.80;;;;;;5018337;28;20076;-47
2022/07/21 12:04:58;;;;;;;7.55;6.43;;;27.30;49.00;;;;;;5000207;28;20424;-47
2022/07/21 12:07:38;;;;;;;7.05;6.15;;;27.40;49.60;;;;;;5001693;28;20030;-47
2022/07/21 12:10:06;;;;;;;6.60;5.90;;;27.40;49.00;;;;;;4999864;28;20217;-47
2022/07/21 12:12:47;;;;;;;7.90;5.78;;;27.40;49.00;;;;;;5017088;28;20597;-47
2022/07/21 12:15:20;;;;;;;6.93;6.05;;;27.50;48.90;;;;;;5002832;28;20567;-47
2022/07/21 12:17:52;;;;;;;8.95;6.32;;;27.60;48.10;;;;;;5001798;28;20790;-46
2022/07/21 12:20:44;;;;;;;6.90;6.20;;;27.60;48.70;;;;;;5002837;28;20029;-47
2022/07/21 12:23:27;;;;;;;9.35;6.15;;;27.60;48.40;;;;;;5001692;28;20042;-47
2022/07/21 12:25:54;;;;;;;8.98;6.57;;;27.60;48.40;;;;;;5002724;28;20133;-47
2022/07/21 12:28:20;;;;;;;7.47;6.40;;;27.70;48.50;;;;;;5003841;28;20026;-47
2022/07/21 12:30:50;;;;;;;7.47;6.60;;;27.70;49.10;;;;;;5006613;28;20032;-47
2022/07/21 12:33:20;;;;;;;7.05;6.35;;;27.80;48.60;;;;;;5007025;28;20025;-47
2022/07/21 12:36:00;;;;;;;7.40;5.93;;;27.80;48.10;;;;;;5002396;28;20048;-47
2022/07/21 12:38:40;;;;;;;7.63;6.47;;;27.90;47.90;;;;;;5005387;28;20390;-47
2022/07/21 12:41:06;;;;;;;7.15;5.40;;;27.90;48.10;;;;;;5005796;28;20018;-47
2022/07/21 12:43:32;;;;;;;7.57;6.47;;;27.90;47.90;;;;;;5006033;28;20043;-47
2022/07/21 12:46:05;;;;;;;7.20;6.25;;;28.00;48.50;;;;;;5005992;28;20049;-48
2022/07/21 12:48:33;;;;;;;7.43;6.05;;;28.00;49.70;;;;;;5005595;28;20666;-47
2022/07/21 12:51:11;;;;;;;9.35;6.80;;;28.10;47.60;;;;;;5005431;28;20030;-52
2022/07/21 12:53:48;;;;;;;7.68;6.88;;;28.10;47.90;;;;;;5005916;28;20076;-47